Stratford, Texas
Current Conditions -  °F | °C
As of 10:35 PM on Friday 24 Oct 2014 (Local Time) from KDUX Reporting Station
NA  
Wind Chill: 56°   Ceiling: NA
Heat Index: 56°   Visibility: 10mi
Dew Point: 41°   Wind: 10mph
Humidity: 58%   Direction: 190°S
Pressure: 30.14"   Gusts: NA
Location:  36.34°N, 102.07°W
Report Text: KDUX 250335Z AUTO 19009KT 10SM 13/05 A3014 RMK AO2 T01320050
Loading
Personal Weather Stations






























Interactive Weather Map
Tropical Storm Tracking
New forecast layout! Learn more

10-Day Weather Forecast

Advertisements
Track Severe Weather on mobile